Terminal Aerodrome Forecast
Issued by NWS

Home | Current Version | Previous Version | Text Only | Print | Product List | Glossary On
Versions: 1 2 3 4 5 6 7 8 9 10 11 12 13 14 15 16 17 18 19 20 21 22 23 24 25 26 27 28 29 30 31
000
FTUS45 KSLC 211226 AAA
TAFLGU
TAF AMD
KLGU 211226Z 2112/2212 33008KT P6SM -SHRA SCT030 BKN060
      TEMPO 2112/2114 VRB10G20KT 6SM -TSRA SCT030 BKN060CB
     FM211800 30010KT P6SM VCSH SCT040 BKN080
     FM220000 VRB04KT P6SM SCT080=

USA.gov is the U.S. government's official web portal to all federal, state and local government web resources and services.